Time;durP1;ratioP1;P1;durP2;ratioP2;P2;SDS_P1;SDS_P2;PMS_P1;PMS_P2;Temp;Humidity;BMP_temperature;BMP_pressure;BME280_temperature;BME280_humidity;BME280_pressure;Samples;Min_cycle;Max_cycle;Signal;HPM_P1;HPM_P2
2023/05/06 00:02:16;;;;;;;11.07;9.70;;;11.70;99.90;;;;;;4986173;28;20438;-74
2023/05/06 00:04:42;;;;;;;10.57;9.63;;;11.70;99.90;;;;;;4989518;28;20434;-73
2023/05/06 00:07:07;;;;;;;11.30;10.10;;;11.70;99.90;;;;;;4989346;28;20500;-73
2023/05/06 00:09:33;;;;;;;13.23;10.83;;;11.60;99.90;;;;;;4990026;28;20430;-73
2023/05/06 00:11:59;;;;;;;12.47;10.83;;;11.50;99.90;;;;;;4990538;28;20918;-73
2023/05/06 00:14:24;;;;;;;13.00;11.60;;;11.40;99.90;;;;;;4988492;28;21169;-74
2023/05/06 00:16:50;;;;;;;12.20;11.00;;;11.40;99.90;;;;;;4989157;28;20430;-73
2023/05/06 00:19:15;;;;;;;12.95;11.13;;;11.60;99.90;;;;;;4984353;28;20538;-73
2023/05/06 00:21:41;;;;;;;12.75;11.45;;;11.50;99.90;;;;;;4975950;28;20919;-73
2023/05/06 00:24:07;;;;;;;12.47;11.20;;;11.40;99.90;;;;;;4985396;28;20497;-74
2023/05/06 00:26:32;;;;;;;13.37;11.07;;;11.80;99.90;;;;;;4990604;28;20752;-73
2023/05/06 00:28:58;;;;;;;14.30;12.07;;;11.50;99.90;;;;;;4988336;28;20438;-74
2023/05/06 00:31:24;;;;;;;14.47;12.33;;;11.70;99.90;;;;;;4987801;28;20441;-74
2023/05/06 00:33:49;;;;;;;13.80;11.65;;;11.60;99.90;;;;;;4991433;28;20501;-73
2023/05/06 00:36:15;;;;;;;13.75;12.30;;;11.80;99.90;;;;;;4990113;28;20434;-72
2023/05/06 00:38:41;;;;;;;14.95;12.48;;;11.60;99.90;;;;;;4991473;28;20414;-73
2023/05/06 00:41:07;;;;;;;14.32;12.07;;;11.70;99.90;;;;;;4988786;28;20457;-73
2023/05/06 00:43:32;;;;;;;13.48;12.02;;;11.80;99.90;;;;;;4990610;28;20522;-73
2023/05/06 00:45:58;;;;;;;14.47;12.43;;;11.70;99.90;;;;;;4989197;28;20466;-75
2023/05/06 00:48:24;;;;;;;15.80;12.68;;;11.80;99.90;;;;;;4990341;28;20970;-73
2023/05/06 00:50:50;;;;;;;13.95;11.90;;;12.00;99.90;;;;;;4989111;28;20434;-73
2023/05/06 00:53:19;;;;;;;15.13;11.80;;;12.00;99.90;;;;;;4988315;28;20426;-73
2023/05/06 00:55:45;;;;;;;14.40;12.50;;;12.00;99.90;;;;;;4988565;28;20495;-73
2023/05/06 00:58:11;;;;;;;15.30;12.23;;;12.10;99.90;;;;;;4987012;28;20434;-74
2023/05/06 01:00:37;;;;;;;14.80;11.75;;;12.00;99.90;;;;;;4988204;28;20957;-75
2023/05/06 01:03:03;;;;;;;12.95;11.25;;;12.00;99.90;;;;;;4987739;28;20450;-74
2023/05/06 01:05:38;;;;;;;14.27;11.68;;;12.00;99.90;;;;;;4987841;28;20894;-75
2023/05/06 01:08:36;;;;;;;13.02;11.32;;;12.10;99.90;;;;;;4989539;28;20411;-75
2023/05/06 01:11:10;;;;;;;14.48;11.30;;;12.00;99.90;;;;;;4986996;28;20445;-77
2023/05/06 01:13:56;;;;;;;13.38;11.98;;;12.00;99.90;;;;;;4987505;28;20418;-75
2023/05/06 01:16:25;;;;;;;13.93;12.63;;;12.10;99.90;;;;;;4970267;28;20424;-77
2023/05/06 01:18:53;;;;;;;14.00;11.70;;;12.10;99.90;;;;;;4969102;28;20431;-78
2023/05/06 01:21:21;;;;;;;13.00;11.67;;;12.10;99.90;;;;;;4987945;28;20438;-76
2023/05/06 01:23:56;;;;;;;11.90;10.30;;;12.00;99.90;;;;;;4988314;28;20509;-78
2023/05/06 01:26:26;;;;;;;12.63;11.32;;;11.90;99.90;;;;;;4969574;28;20423;-76
2023/05/06 01:28:52;;;;;;;13.30;11.35;;;11.80;99.90;;;;;;4971397;28;20446;-77
2023/05/06 01:31:44;;;;;;;12.32;11.02;;;11.60;99.90;;;;;;4987175;28;20426;-75
2023/05/06 01:34:40;;;;;;;13.68;11.30;;;11.90;99.90;;;;;;4985984;28;21160;-75
2023/05/06 01:37:18;;;;;;;12.20;11.00;;;11.80;99.90;;;;;;4988807;28;20425;-77
2023/05/06 01:39:45;;;;;;;15.75;11.95;;;11.90;99.90;;;;;;4987032;28;20446;-74
2023/05/06 01:42:13;;;;;;;11.75;10.07;;;11.80;99.90;;;;;;4985845;28;20430;-75
2023/05/06 01:44:40;;;;;;;11.63;10.18;;;12.00;99.90;;;;;;4986075;28;20427;-75
2023/05/06 01:47:07;;;;;;;12.17;9.77;;;12.00;99.90;;;;;;4987669;28;20421;-74
2023/05/06 01:49:34;;;;;;;12.25;10.48;;;12.00;99.90;;;;;;4987027;28;20434;-74
2023/05/06 01:52:01;;;;;;;12.52;11.23;;;11.80;99.90;;;;;;4986854;28;20422;-76
2023/05/06 01:54:26;;;;;;;12.20;10.90;;;11.70;99.90;;;;;;4987838;28;20422;-74
2023/05/06 01:56:53;;;;;;;11.57;10.38;;;11.90;99.90;;;;;;4988316;28;20429;-74
2023/05/06 01:59:18;;;;;;;14.20;10.65;;;11.90;99.90;;;;;;4987512;28;20406;-75
2023/05/06 02:01:44;;;;;;;13.30;11.63;;;12.00;99.90;;;;;;4987326;28;20430;-74
2023/05/06 02:04:10;;;;;;;12.73;11.13;;;11.90;99.90;;;;;;4987226;28;20441;-74
2023/05/06 02:06:35;;;;;;;12.35;10.88;;;11.90;99.90;;;;;;4988203;28;20422;-75
2023/05/06 02:09:01;;;;;;;14.48;12.18;;;12.00;99.90;;;;;;4987823;28;20415;-75
2023/05/06 02:11:27;;;;;;;15.33;12.03;;;11.80;99.90;;;;;;4987107;28;20461;-74
2023/05/06 02:13:55;;;;;;;26.33;13.25;;;11.90;99.90;;;;;;4984809;28;20451;-74
2023/05/06 02:16:20;;;;;;;12.53;11.23;;;11.80;99.90;;;;;;4987169;28;20514;-75
2023/05/06 02:18:46;;;;;;;12.83;11.43;;;11.90;99.90;;;;;;4968648;28;20559;-76
2023/05/06 02:21:12;;;;;;;15.02;13.43;;;11.60;99.90;;;;;;4981517;28;20430;-73
2023/05/06 02:23:38;;;;;;;12.57;11.27;;;11.60;99.90;;;;;;4987195;28;20779;-75
2023/05/06 02:26:04;;;;;;;14.18;12.48;;;11.60;99.90;;;;;;4985175;28;20477;-74
2023/05/06 02:28:30;;;;;;;16.10;12.55;;;11.70;99.90;;;;;;4986643;28;20431;-75
2023/05/06 02:30:56;;;;;;;13.93;12.15;;;11.60;99.90;;;;;;4986970;28;20857;-75
2023/05/06 02:33:22;;;;;;;14.40;12.90;;;11.60;99.90;;;;;;4987233;28;20430;-74
2023/05/06 02:35:48;;;;;;;18.00;13.15;;;11.60;99.90;;;;;;4986443;28;20442;-75
2023/05/06 02:38:14;;;;;;;15.02;13.20;;;11.60;99.90;;;;;;4987415;28;20485;-76
2023/05/06 02:40:40;;;;;;;14.13;12.65;;;11.50;99.90;;;;;;4987284;28;20752;-75
2023/05/06 02:43:05;;;;;;;14.23;12.55;;;11.60;99.90;;;;;;4984211;28;20489;-74
2023/05/06 02:45:31;;;;;;;14.32;12.10;;;11.50;99.90;;;;;;4987167;28;20434;-74
2023/05/06 02:47:56;;;;;;;14.73;11.93;;;11.50;99.90;;;;;;4988206;28;20428;-75
2023/05/06 02:50:22;;;;;;;16.10;13.10;;;11.40;99.90;;;;;;4976588;28;20497;-75
2023/05/06 02:52:48;;;;;;;16.73;14.00;;;11.30;99.90;;;;;;4988962;28;20505;-74
2023/05/06 02:55:13;;;;;;;15.35;12.65;;;11.30;99.90;;;;;;4983761;28;20427;-74
2023/05/06 02:57:39;;;;;;;14.18;12.23;;;11.30;99.90;;;;;;4968824;28;20489;-77
2023/05/06 03:00:05;;;;;;;13.45;12.05;;;11.40;99.90;;;;;;4978797;28;20431;-77
2023/05/06 03:02:31;;;;;;;15.90;13.25;;;11.30;99.90;;;;;;4988550;28;20894;-76
2023/05/06 03:04:57;;;;;;;16.52;13.88;;;11.20;99.90;;;;;;4988644;28;20437;-74
2023/05/06 03:07:22;;;;;;;14.38;12.88;;;11.20;99.90;;;;;;4988076;28;20438;-76
2023/05/06 03:09:48;;;;;;;15.80;13.40;;;11.20;99.90;;;;;;4986719;28;20437;-75
2023/05/06 03:12:14;;;;;;;17.23;13.83;;;11.20;99.90;;;;;;4987708;28;20418;-74
2023/05/06 03:14:39;;;;;;;15.80;13.20;;;11.30;99.90;;;;;;4986896;28;20816;-78
2023/05/06 03:17:05;;;;;;;12.40;11.10;;;11.30;99.90;;;;;;4988186;28;20430;-77
2023/05/06 03:19:30;;;;;;;13.77;11.63;;;11.10;99.90;;;;;;4986529;28;20418;-76
2023/05/06 03:21:56;;;;;;;15.27;13.25;;;10.90;99.90;;;;;;4987297;28;20434;-78
2023/05/06 03:24:22;;;;;;;12.77;11.48;;;10.70;99.90;;;;;;4984502;28;20521;-77
2023/05/06 03:26:47;;;;;;;14.60;13.00;;;10.60;99.90;;;;;;4986980;28;20563;-78
2023/05/06 03:29:13;;;;;;;16.07;14.47;;;10.60;99.90;;;;;;4983489;28;20448;-74
2023/05/06 03:31:39;;;;;;;17.83;14.80;;;10.70;99.90;;;;;;4976520;28;20815;-76
2023/05/06 03:34:04;;;;;;;15.48;13.65;;;10.60;99.90;;;;;;4971767;28;21021;-76
2023/05/06 03:36:30;;;;;;;15.70;13.98;;;10.60;99.90;;;;;;4975537;28;20462;-75
2023/05/06 03:38:56;;;;;;;15.93;14.32;;;10.60;99.90;;;;;;4989422;28;20433;-74
2023/05/06 03:41:23;;;;;;;15.77;14.15;;;10.60;99.90;;;;;;4990088;28;20919;-73
2023/05/06 03:43:49;;;;;;;17.58;14.15;;;10.80;99.90;;;;;;4989926;28;20436;-75
2023/05/06 03:46:14;;;;;;;20.60;16.05;;;10.60;99.90;;;;;;4991358;28;20422;-76
2023/05/06 03:48:40;;;;;;;15.02;13.23;;;10.80;99.90;;;;;;4992501;28;20425;-77
2023/05/06 03:51:06;;;;;;;18.30;13.50;;;10.90;99.90;;;;;;4990777;28;20484;-76
2023/05/06 03:53:32;;;;;;;15.32;13.55;;;10.80;99.90;;;;;;4992252;28;20438;-74
2023/05/06 03:55:57;;;;;;;15.37;13.77;;;10.80;99.90;;;;;;4992718;28;20454;-79
2023/05/06 03:58:23;;;;;;;15.30;12.57;;;10.80;99.90;;;;;;4989541;28;21097;-76
2023/05/06 04:00:49;;;;;;;15.10;13.10;;;10.60;99.90;;;;;;4990714;28;20427;-76
2023/05/06 04:03:15;;;;;;;16.20;13.03;;;10.60;99.90;;;;;;4990747;28;20484;-75
2023/05/06 04:05:40;;;;;;;17.73;14.25;;;10.60;99.90;;;;;;4982676;28;20439;-77
2023/05/06 04:08:06;;;;;;;19.15;15.07;;;10.90;99.90;;;;;;4988563;28;20426;-75
2023/05/06 04:10:36;;;;;;;18.73;14.48;;;10.90;99.90;;;;;;4990641;28;20458;-74
2023/05/06 04:13:01;;;;;;;13.27;11.93;;;10.80;99.90;;;;;;4988666;28;20434;-75
2023/05/06 04:15:30;;;;;;;12.63;11.33;;;10.90;99.90;;;;;;4991561;28;20453;-76
2023/05/06 04:17:56;;;;;;;14.25;12.75;;;10.70;99.90;;;;;;4991829;28;20418;-76
2023/05/06 04:20:22;;;;;;;14.03;12.63;;;10.60;99.90;;;;;;4974012;28;20430;-77
2023/05/06 04:22:47;;;;;;;14.00;12.50;;;10.60;99.90;;;;;;4991203;28;20576;-76
2023/05/06 04:25:13;;;;;;;17.17;14.13;;;10.50;99.90;;;;;;4990520;28;20426;-75
2023/05/06 04:27:39;;;;;;;14.73;13.20;;;10.70;99.90;;;;;;4988652;28;20430;-77
2023/05/06 04:30:05;;;;;;;14.93;12.88;;;10.90;99.90;;;;;;4988980;28;20414;-77
2023/05/06 04:32:32;;;;;;;15.35;13.70;;;10.90;99.90;;;;;;4989421;28;20941;-78
2023/05/06 04:34:58;;;;;;;14.77;13.27;;;11.10;99.90;;;;;;4976266;28;20418;-77
2023/05/06 04:37:24;;;;;;;16.00;13.73;;;11.30;99.90;;;;;;4990678;28;20426;-75
2023/05/06 04:39:49;;;;;;;16.35;13.82;;;11.30;99.90;;;;;;4988111;28;20426;-76
2023/05/06 04:42:15;;;;;;;14.43;12.88;;;11.10;99.90;;;;;;4986667;28;20430;-75
2023/05/06 04:44:42;;;;;;;15.15;13.55;;;11.10;99.90;;;;;;4989119;28;20783;-77
2023/05/06 04:47:07;;;;;;;16.48;14.25;;;11.00;99.90;;;;;;4988834;28;20477;-77
2023/05/06 04:49:33;;;;;;;15.90;14.20;;;11.30;99.90;;;;;;4989147;28;20779;-75
2023/05/06 04:51:59;;;;;;;14.02;12.63;;;11.30;99.90;;;;;;4985797;28;20441;-75
2023/05/06 04:54:25;;;;;;;14.10;12.60;;;11.40;99.90;;;;;;4987421;28;20778;-76
2023/05/06 04:56:50;;;;;;;16.33;13.40;;;11.20;99.90;;;;;;4988929;28;21133;-77
2023/05/06 04:59:16;;;;;;;14.37;12.60;;;11.20;99.90;;;;;;4987878;28;20478;-74
2023/05/06 05:01:42;;;;;;;14.27;12.82;;;11.20;99.90;;;;;;4987534;28;21119;-74
2023/05/06 05:04:07;;;;;;;14.00;12.52;;;11.30;99.90;;;;;;4989048;28;20469;-77
2023/05/06 05:06:33;;;;;;;15.52;12.88;;;11.40;99.90;;;;;;4988944;28;20422;-78
2023/05/06 05:08:59;;;;;;;13.47;10.70;;;11.50;99.90;;;;;;4987458;28;20433;-75
2023/05/06 05:11:24;;;;;;;13.17;10.90;;;11.30;99.90;;;;;;4985924;28;20505;-75
2023/05/06 05:13:50;;;;;;;13.93;12.03;;;11.30;99.90;;;;;;4988209;28;20505;-74
2023/05/06 05:16:16;;;;;;;13.80;12.27;;;11.20;99.90;;;;;;4985897;28;20442;-75
2023/05/06 05:18:42;;;;;;;16.75;13.80;;;11.10;99.90;;;;;;4988560;28;20437;-75
2023/05/06 05:21:07;;;;;;;15.60;12.83;;;11.10;99.90;;;;;;4986784;28;20459;-76
2023/05/06 05:23:33;;;;;;;15.43;13.43;;;11.30;99.90;;;;;;4989024;28;20442;-75
2023/05/06 05:26:00;;;;;;;14.90;13.38;;;11.30;99.90;;;;;;4982122;28;20753;-74
2023/05/06 05:28:25;;;;;;;15.20;13.05;;;11.40;99.90;;;;;;4981148;28;20480;-77
2023/05/06 05:30:51;;;;;;;15.63;13.95;;;11.20;99.90;;;;;;4987620;28;20861;-77
2023/05/06 05:33:17;;;;;;;16.57;14.33;;;11.40;99.90;;;;;;4988976;28;20418;-76
2023/05/06 05:35:42;;;;;;;15.47;13.77;;;11.40;99.90;;;;;;4989247;28;20406;-75
2023/05/06 05:38:08;;;;;;;15.90;14.30;;;11.30;99.90;;;;;;4987553;28;20438;-77
2023/05/06 05:40:35;;;;;;;17.37;13.80;;;11.40;99.90;;;;;;4982819;28;20911;-77
2023/05/06 05:43:00;;;;;;;17.60;14.60;;;11.50;99.90;;;;;;4969596;28;20442;-76
2023/05/06 05:45:26;;;;;;;18.73;15.73;;;11.30;99.90;;;;;;4971633;28;20408;-76
2023/05/06 05:47:52;;;;;;;16.35;14.65;;;11.40;99.90;;;;;;4980071;28;20434;-74
2023/05/06 05:50:18;;;;;;;20.98;16.27;;;11.40;99.90;;;;;;4988133;28;20513;-76
2023/05/06 05:52:44;;;;;;;19.33;16.80;;;11.50;99.90;;;;;;4984284;28;20927;-75
2023/05/06 05:55:10;;;;;;;23.20;16.73;;;11.70;99.90;;;;;;4989107;28;20411;-74
2023/05/06 05:57:35;;;;;;;18.70;16.65;;;11.50;99.90;;;;;;4985815;28;20423;-74
2023/05/06 06:00:02;;;;;;;18.33;16.38;;;11.50;99.90;;;;;;4986152;28;20510;-74
2023/05/06 06:02:27;;;;;;;19.63;16.90;;;11.40;99.90;;;;;;4981316;28;20490;-78
2023/05/06 06:04:53;;;;;;;19.67;15.97;;;11.70;99.90;;;;;;4989347;28;20795;-74
2023/05/06 06:07:19;;;;;;;19.40;16.50;;;11.90;99.90;;;;;;4987349;28;20430;-75
2023/05/06 06:09:45;;;;;;;18.13;16.17;;;11.80;99.90;;;;;;4988060;28;21049;-76
2023/05/06 06:12:11;;;;;;;21.33;17.52;;;11.70;99.90;;;;;;4985252;28;20434;-75
2023/05/06 06:14:37;;;;;;;19.73;17.65;;;11.80;99.90;;;;;;4988069;28;20513;-74
2023/05/06 06:17:02;;;;;;;20.00;17.90;;;11.80;99.90;;;;;;4986199;28;20430;-78
2023/05/06 06:19:28;;;;;;;21.30;19.10;;;11.80;99.90;;;;;;4987586;28;20410;-78
2023/05/06 06:21:54;;;;;;;20.98;17.77;;;11.80;99.90;;;;;;4987499;28;20431;-74
2023/05/06 06:24:20;;;;;;;19.35;17.23;;;12.00;99.90;;;;;;4984960;28;20499;-73
2023/05/06 06:26:47;;;;;;;22.63;19.48;;;12.30;99.90;;;;;;4986656;28;20457;-76
2023/05/06 06:29:12;;;;;;;19.73;17.53;;;12.30;99.90;;;;;;4988728;28;20418;-75
2023/05/06 06:31:38;;;;;;;31.17;18.87;;;12.30;99.90;;;;;;4985087;28;20439;-73
2023/05/06 06:34:07;;;;;;;18.47;16.53;;;12.40;99.90;;;;;;4967913;28;20412;-74
2023/05/06 06:36:33;;;;;;;21.33;18.02;;;12.30;99.90;;;;;;4979466;28;20410;-76
2023/05/06 06:38:59;;;;;;;18.33;16.05;;;12.30;99.90;;;;;;4985690;28;20415;-74
2023/05/06 06:41:26;;;;;;;19.65;17.55;;;12.40;99.90;;;;;;4984732;28;20444;-75
2023/05/06 06:43:52;;;;;;;19.95;16.92;;;12.40;99.90;;;;;;4983500;28;20442;-73
2023/05/06 06:46:18;;;;;;;20.13;16.03;;;12.60;99.90;;;;;;4987246;28;20468;-75
2023/05/06 06:48:44;;;;;;;19.30;16.87;;;12.70;99.90;;;;;;4987027;28;20499;-74
2023/05/06 06:51:09;;;;;;;17.67;15.77;;;12.60;99.90;;;;;;4984171;28;20440;-75
2023/05/06 06:53:35;;;;;;;19.50;16.58;;;12.40;99.90;;;;;;4969667;28;20427;-76
2023/05/06 06:56:01;;;;;;;19.02;16.35;;;12.60;99.90;;;;;;4987036;28;20766;-75
2023/05/06 06:58:26;;;;;;;18.40;16.50;;;12.80;99.90;;;;;;4982589;28;20820;-75
2023/05/06 07:00:52;;;;;;;18.43;16.53;;;12.60;99.90;;;;;;4970026;28;20443;-76
2023/05/06 07:03:18;;;;;;;18.80;16.20;;;12.80;99.90;;;;;;4987949;28;20952;-74
2023/05/06 07:05:44;;;;;;;19.70;16.40;;;13.00;99.90;;;;;;5003926;28;20762;-75
2023/05/06 07:08:10;;;;;;;17.90;16.00;;;13.10;99.90;;;;;;4989384;28;20549;-73
2023/05/06 07:10:36;;;;;;;17.85;15.27;;;13.40;99.90;;;;;;4987237;28;20505;-76
2023/05/06 07:13:02;;;;;;;16.33;14.65;;;13.40;99.90;;;;;;4985022;28;20430;-74
2023/05/06 07:15:28;;;;;;;15.48;13.77;;;13.20;99.90;;;;;;4986823;28;20437;-79
2023/05/06 07:17:53;;;;;;;15.48;13.98;;;13.40;99.90;;;;;;4985955;28;20782;-74
2023/05/06 07:20:19;;;;;;;16.13;14.27;;;13.50;99.90;;;;;;4988912;28;20426;-73
2023/05/06 07:22:45;;;;;;;14.23;12.83;;;13.70;99.90;;;;;;4987121;28;20441;-74
2023/05/06 07:25:10;;;;;;;16.00;14.33;;;13.90;99.90;;;;;;4984683;28;20422;-75
2023/05/06 07:27:36;;;;;;;16.10;14.47;;;14.80;99.90;;;;;;4994844;28;20488;-73
2023/05/06 07:30:02;;;;;;;15.77;14.05;;;14.60;99.90;;;;;;4994290;28;20414;-76
2023/05/06 07:32:28;;;;;;;13.75;12.45;;;14.70;99.90;;;;;;4985079;28;20430;-77
2023/05/06 07:34:53;;;;;;;14.25;12.82;;;14.70;99.90;;;;;;4986289;28;20430;-74
2023/05/06 07:37:19;;;;;;;11.63;10.43;;;14.90;99.90;;;;;;5002922;28;20425;-75
2023/05/06 07:39:46;;;;;;;11.10;10.00;;;14.40;99.90;;;;;;5005131;28;20758;-74
2023/05/06 07:42:12;;;;;;;11.98;10.52;;;14.40;99.90;;;;;;4994446;28;20768;-74
2023/05/06 07:44:38;;;;;;;12.02;10.73;;;14.40;99.90;;;;;;4986847;28;20428;-77
2023/05/06 07:47:04;;;;;;;14.52;13.02;;;14.80;99.90;;;;;;5000153;28;20607;-76
2023/05/06 07:49:32;;;;;;;12.75;11.40;;;14.80;99.90;;;;;;5000992;28;20409;-75
2023/05/06 07:51:57;;;;;;;12.07;10.98;;;14.60;99.90;;;;;;4992581;28;20919;-76
2023/05/06 07:54:23;;;;;;;11.63;10.50;;;14.60;99.90;;;;;;4987470;28;20411;-74
2023/05/06 07:56:49;;;;;;;12.07;10.77;;;14.70;99.90;;;;;;4996295;28;20442;-75
2023/05/06 07:59:15;;;;;;;11.57;10.47;;;15.40;99.90;;;;;;4984378;28;20437;-74
2023/05/06 08:01:40;;;;;;;12.60;11.07;;;15.30;99.90;;;;;;4979721;28;20541;-76
2023/05/06 08:04:06;;;;;;;12.52;11.23;;;15.20;99.90;;;;;;4968882;28;20788;-74
2023/05/06 08:06:32;;;;;;;12.05;10.77;;;15.40;99.90;;;;;;4987204;28;20947;-73
2023/05/06 08:08:59;;;;;;;12.20;10.68;;;16.00;99.90;;;;;;5000160;28;20429;-78
2023/05/06 08:11:25;;;;;;;13.80;11.80;;;15.90;99.90;;;;;;4992167;28;20417;-75
2023/05/06 08:13:50;;;;;;;12.18;10.98;;;15.90;99.90;;;;;;4986116;28;20426;-74
2023/05/06 08:16:16;;;;;;;14.07;11.73;;;16.00;99.90;;;;;;4994218;28;20452;-75
2023/05/06 08:18:42;;;;;;;11.93;10.73;;;15.70;99.90;;;;;;4987587;28;20510;-74
2023/05/06 08:21:07;;;;;;;12.20;11.00;;;15.70;99.90;;;;;;4991461;28;20429;-77
2023/05/06 08:23:36;;;;;;;12.38;11.15;;;15.80;99.90;;;;;;4988143;28;20422;-75
2023/05/06 08:26:02;;;;;;;13.60;12.30;;;16.10;99.90;;;;;;4990034;28;20422;-77
2023/05/06 08:28:28;;;;;;;12.70;11.40;;;16.20;99.90;;;;;;4998513;28;20444;-76
2023/05/06 08:30:54;;;;;;;12.40;11.20;;;16.30;99.90;;;;;;4992964;28;20429;-74
2023/05/06 08:33:20;;;;;;;13.32;11.23;;;17.00;99.90;;;;;;4989397;28;20450;-74
2023/05/06 08:35:46;;;;;;;13.18;11.77;;;16.60;99.90;;;;;;4988983;28;20491;-74
2023/05/06 08:38:11;;;;;;;11.90;10.77;;;16.80;99.90;;;;;;5010314;28;20507;-73
2023/05/06 08:40:42;;;;;;;14.15;10.55;;;16.90;99.90;;;;;;5003143;28;20489;-76
2023/05/06 08:43:13;;;;;;;11.80;10.70;;;16.40;99.90;;;;;;4985938;28;20431;-76
2023/05/06 08:45:39;;;;;;;14.05;11.07;;;16.20;99.90;;;;;;4989203;28;20411;-75
2023/05/06 08:48:05;;;;;;;12.25;10.95;;;16.60;99.90;;;;;;5006838;28;20433;-74
2023/05/06 08:50:32;;;;;;;13.45;11.02;;;17.00;99.90;;;;;;5008816;28;20510;-75
2023/05/06 08:52:59;;;;;;;9.40;8.50;;;17.00;99.90;;;;;;4973865;28;20921;-76
2023/05/06 08:55:26;;;;;;;8.77;7.90;;;17.00;99.90;;;;;;4989589;28;21334;-76
2023/05/06 08:57:52;;;;;;;11.65;8.77;;;17.30;99.90;;;;;;4988169;28;20536;-76
2023/05/06 09:00:18;;;;;;;9.98;8.30;;;17.50;99.90;;;;;;4989641;28;20752;-74
2023/05/06 09:02:43;;;;;;;9.05;8.13;;;17.70;99.90;;;;;;4999675;28;20437;-74
2023/05/06 09:05:10;;;;;;;10.48;9.10;;;17.70;99.90;;;;;;5008939;28;20412;-74
2023/05/06 09:07:36;;;;;;;9.02;8.18;;;17.40;99.90;;;;;;4994922;28;20433;-75
2023/05/06 09:10:11;;;;;;;9.80;8.80;;;17.70;99.90;;;;;;4987271;28;20867;-77
2023/05/06 09:12:37;;;;;;;9.40;7.90;;;17.70;99.90;;;;;;4979464;28;20444;-75
2023/05/06 09:15:04;;;;;;;9.48;8.55;;;18.00;99.90;;;;;;4993956;28;20740;-75
2023/05/06 09:17:31;;;;;;;11.83;8.60;;;17.80;99.90;;;;;;4990710;28;20915;-73
2023/05/06 09:19:57;;;;;;;10.30;8.73;;;18.10;99.90;;;;;;5006202;28;21128;-75
2023/05/06 09:22:27;;;;;;;10.75;9.65;;;17.80;99.90;;;;;;4999381;28;20519;-75
2023/05/06 09:24:57;;;;;;;9.63;8.70;;;18.00;99.90;;;;;;4987996;28;20458;-74
2023/05/06 09:27:27;;;;;;;9.65;8.23;;;17.90;99.90;;;;;;4995882;28;20429;-75
2023/05/06 09:30:06;;;;;;;10.40;9.30;;;17.50;99.90;;;;;;5008046;28;20409;-73
2023/05/06 09:32:32;;;;;;;10.88;9.40;;;18.00;99.90;;;;;;4999877;28;20833;-75
2023/05/06 09:34:58;;;;;;;8.77;7.90;;;18.40;99.90;;;;;;5006076;28;20467;-76
2023/05/06 09:37:27;;;;;;;8.23;7.40;;;18.40;99.90;;;;;;5006021;28;20917;-77
2023/05/06 09:39:55;;;;;;;9.27;7.80;;;18.50;99.90;;;;;;5008723;28;20408;-76
2023/05/06 09:42:22;;;;;;;10.68;7.38;;;18.70;99.90;;;;;;5002598;28;20432;-76
2023/05/06 09:44:49;;;;;;;10.57;7.85;;;18.90;99.90;;;;;;4989749;28;20418;-75
2023/05/06 09:47:14;;;;;;;7.40;6.43;;;19.00;99.90;;;;;;4992998;28;20414;-74
2023/05/06 09:49:41;;;;;;;8.70;6.80;;;18.60;99.90;;;;;;4989886;28;20441;-73
2023/05/06 09:52:06;;;;;;;8.73;7.43;;;18.60;99.90;;;;;;4988043;28;20414;-75
2023/05/06 09:54:33;;;;;;;8.90;7.15;;;19.10;99.90;;;;;;5006990;28;20409;-75
2023/05/06 09:56:59;;;;;;;8.20;7.40;;;19.20;99.90;;;;;;5003687;28;20425;-76
2023/05/06 09:59:28;;;;;;;7.80;7.07;;;19.10;99.90;;;;;;4975275;28;20439;-73
2023/05/06 10:01:54;;;;;;;9.25;7.88;;;19.40;99.90;;;;;;4986189;28;20514;-75
2023/05/06 10:04:22;;;;;;;8.85;8.00;;;19.50;99.90;;;;;;4988004;28;20426;-75
2023/05/06 10:06:49;;;;;;;9.57;7.87;;;19.80;99.90;;;;;;4990736;28;20438;-76
2023/05/06 10:09:16;;;;;;;9.27;7.68;;;19.80;99.90;;;;;;4991249;28;20454;-73
2023/05/06 10:11:44;;;;;;;11.10;8.33;;;18.70;99.90;;;;;;4987326;28;20469;-75
2023/05/06 10:14:10;;;;;;;9.07;8.02;;;19.60;99.90;;;;;;4973310;28;20518;-74
2023/05/06 10:16:36;;;;;;;9.33;8.43;;;19.90;99.90;;;;;;4988883;28;20961;-76
2023/05/06 10:19:03;;;;;;;10.40;8.25;;;19.60;99.90;;;;;;4982757;28;20539;-76
2023/05/06 10:21:33;;;;;;;10.50;7.57;;;20.10;99.90;;;;;;4984641;28;20434;-76
2023/05/06 10:24:08;;;;;;;10.73;9.63;;;19.50;99.90;;;;;;4986612;28;20442;-76
2023/05/06 10:26:38;;;;;;;9.48;8.00;;;19.30;99.90;;;;;;4986792;28;20490;-74
2023/05/06 10:29:09;;;;;;;11.23;9.20;;;19.40;99.90;;;;;;4993869;28;20578;-76
2023/05/06 10:31:42;;;;;;;11.35;10.25;;;19.50;99.90;;;;;;4992532;28;20436;-76
2023/05/06 10:34:08;;;;;;;12.17;9.57;;;19.40;99.90;;;;;;4988148;28;20433;-74
2023/05/06 10:36:35;;;;;;;11.70;9.60;;;20.00;99.90;;;;;;4988177;28;20415;-75
2023/05/06 10:39:03;;;;;;;10.73;9.73;;;19.60;99.90;;;;;;4988730;28;20514;-75
2023/05/06 10:41:29;;;;;;;11.87;9.63;;;19.30;99.90;;;;;;4996294;28;20439;-76
2023/05/06 10:43:56;;;;;;;13.00;9.77;;;19.60;99.90;;;;;;5004312;28;20474;-75
2023/05/06 10:46:26;;;;;;;10.82;9.52;;;19.60;99.90;;;;;;4986957;28;20410;-75
2023/05/06 10:49:05;;;;;;;12.20;10.50;;;19.40;99.90;;;;;;4994355;28;20439;-74
2023/05/06 10:51:35;;;;;;;12.43;10.15;;;18.90;99.90;;;;;;5005615;28;20499;-75
2023/05/06 10:54:27;;;;;;;12.97;10.33;;;18.90;99.90;;;;;;5006227;28;20459;-73
2023/05/06 10:56:53;;;;;;;14.57;10.43;;;18.70;99.90;;;;;;4996598;28;20420;-76
2023/05/06 10:59:28;;;;;;;13.88;11.77;;;18.40;99.90;;;;;;4988711;28;20905;-74
2023/05/06 11:02:16;;;;;;;12.63;11.32;;;18.40;99.90;;;;;;4998562;28;20969;-75
2023/05/06 11:04:41;;;;;;;14.93;11.57;;;18.10;99.90;;;;;;4994437;28;20562;-75
2023/05/06 11:07:12;;;;;;;15.80;12.60;;;17.90;99.90;;;;;;4999545;28;20428;-75
2023/05/06 11:10:00;;;;;;;13.50;12.10;;;17.70;99.90;;;;;;5001715;28;20430;-76
2023/05/06 11:12:49;;;;;;;14.27;12.75;;;17.60;99.90;;;;;;4995968;28;20893;-74
2023/05/06 11:15:25;;;;;;;14.27;12.17;;;17.70;99.90;;;;;;4985865;28;21157;-75
2023/05/06 11:17:55;;;;;;;13.50;12.15;;;17.40;99.90;;;;;;4990323;28;20667;-76
2023/05/06 11:20:21;;;;;;;17.45;13.60;;;17.40;99.90;;;;;;4997117;28;20471;-75
2023/05/06 11:22:47;;;;;;;15.45;13.85;;;17.10;99.90;;;;;;4986701;28;20442;-75
2023/05/06 11:25:13;;;;;;;18.07;13.43;;;17.00;99.90;;;;;;4986947;28;20426;-75
2023/05/06 11:27:39;;;;;;;15.47;13.87;;;17.00;99.90;;;;;;4986989;28;20434;-76
2023/05/06 11:30:05;;;;;;;18.02;15.23;;;16.90;99.90;;;;;;4987749;28;20403;-75
2023/05/06 11:32:32;;;;;;;16.88;13.68;;;17.00;99.90;;;;;;4972606;28;20482;-75
2023/05/06 11:34:58;;;;;;;17.42;14.90;;;16.80;99.90;;;;;;4983451;28;20452;-76
2023/05/06 11:37:28;;;;;;;17.80;15.10;;;16.70;99.90;;;;;;5002893;28;20420;-75
2023/05/06 11:39:54;;;;;;;16.02;14.32;;;16.60;99.90;;;;;;5006036;28;21012;-74
2023/05/06 11:42:24;;;;;;;12.35;9.82;;;16.30;99.90;;;;;;4994649;28;20434;-73
2023/05/06 11:44:53;;;;;;;11.45;9.07;;;16.00;99.90;;;;;;4980687;28;20482;-74
2023/05/06 11:47:21;;;;;;;12.43;8.07;;;16.10;99.90;;;;;;5000501;28;20422;-75
2023/05/06 11:49:51;;;;;;;11.88;9.57;;;16.10;99.90;;;;;;4986986;28;21168;-73
2023/05/06 11:52:22;;;;;;;6.50;4.33;;;15.90;99.90;;;;;;5003434;28;20551;-72
2023/05/06 11:54:51;;;;;;;6.32;3.80;;;15.80;99.90;;;;;;5005750;28;20447;-73
2023/05/06 11:57:18;;;;;;;7.82;4.43;;;15.60;99.90;;;;;;4994280;28;21049;-73
2023/05/06 11:59:44;;;;;;;6.50;4.15;;;15.20;99.90;;;;;;4996452;28;20422;-73
2023/05/06 12:02:12;;;;;;;6.15;3.70;;;15.00;99.90;;;;;;5000905;28;20446;-73
2023/05/06 12:04:40;;;;;;;6.13;3.58;;;15.10;99.90;;;;;;4991832;28;20517;-72
2023/05/06 12:07:07;;;;;;;10.20;3.78;;;14.70;99.90;;;;;;5002456;28;20424;-74
2023/05/06 12:09:34;;;;;;;9.32;3.10;;;14.50;99.90;;;;;;5009792;28;20470;-73
2023/05/06 12:12:02;;;;;;;5.57;2.75;;;14.70;99.90;;;;;;4986768;28;20414;-73
2023/05/06 12:14:28;;;;;;;8.68;2.42;;;14.80;99.90;;;;;;4991373;28;20790;-74
2023/05/06 12:16:54;;;;;;;3.65;1.85;;;14.90;99.90;;;;;;4995947;28;20517;-72
2023/05/06 12:19:20;;;;;;;3.10;1.50;;;14.90;99.90;;;;;;4989796;28;20433;-73
2023/05/06 12:21:46;;;;;;;3.55;1.25;;;14.80;99.90;;;;;;4971818;28;20451;-72
2023/05/06 12:24:12;;;;;;;3.40;1.40;;;14.70;99.90;;;;;;4987076;28;20434;-72
2023/05/06 12:26:45;;;;;;;4.13;1.48;;;14.70;99.90;;;;;;4995204;28;20425;-74
2023/05/06 12:29:17;;;;;;;1.77;0.90;;;14.70;99.90;;;;;;4989918;28;20454;-74
2023/05/06 12:31:46;;;;;;;2.65;1.30;;;14.70;99.90;;;;;;4984600;28;20744;-74